BAW506 EGKK-EHAM
Flight info
| Callsign | BAW506 |
|---|---|
| Flight time | 0h 40m |
| Altitude | 29000 |
| Route | FRANE M604 GASBA M197 REDFA |
| Aircraft | A20N/M-SDE2E3FGHIRWXY/LB1 |
Departure
| Time | 2026-04-18 10:05 |
|---|---|
| Airport | London Gatwick Airport (EGKK) |
Arrival
| Time | 2026-04-18 10:45 |
|---|---|
| Airport | Amsterdam Airport Schiphol (EHAM) |
| Time | Latitude | Longitude | Altitude | Speed | Heading |
|---|---|---|---|---|---|
| 2026-04-18 09:47 | 51.15505 | -0.16846 | 213 ft | 0 kts | 348° |
| 2026-04-18 09:56 | 51.15494 | -0.16843 | 207 ft | 2 kts | 347° |
| 2026-04-18 09:56 | 51.15478 | -0.16837 | 205 ft | 2 kts | 346° |
| 2026-04-18 09:57 | 51.15462 | -0.16830 | 215 ft | 2 kts | 339° |
| 2026-04-18 09:57 | 51.15451 | -0.16815 | 217 ft | 1 kts | 261° |
| 2026-04-18 09:57 | 51.15451 | -0.16812 | 217 ft | 1 kts | 259° |
| 2026-04-18 09:57 | 51.15449 | -0.16832 | 211 ft | 0 kts | 259° |
| 2026-04-18 10:01 | 51.15443 | -0.16874 | 207 ft | 11 kts | 258° |
| 2026-04-18 10:01 | 51.15408 | -0.17122 | 205 ft | 19 kts | 253° |
| 2026-04-18 10:01 | 51.15377 | -0.17226 | 204 ft | 9 kts | 236° |
| 2026-04-18 10:02 | 51.15308 | -0.17232 | 208 ft | 12 kts | 167° |
| 2026-04-18 10:02 | 51.15259 | -0.17151 | 205 ft | 7 kts | 83° |
| 2026-04-18 10:02 | 51.15265 | -0.17090 | 211 ft | 10 kts | 78° |
| 2026-04-18 10:02 | 51.15284 | -0.16963 | 205 ft | 14 kts | 76° |
| 2026-04-18 10:03 | 51.15267 | -0.16827 | 209 ft | 13 kts | 156° |
| 2026-04-18 10:03 | 51.15166 | -0.16793 | 208 ft | 16 kts | 177° |
| 2026-04-18 10:03 | 51.15107 | -0.16910 | 209 ft | 12 kts | 259° |
| 2026-04-18 10:03 | 51.15106 | -0.16918 | 208 ft | 0 kts | 258° |
| 2026-04-18 10:04 | 51.15090 | -0.17034 | 212 ft | 40 kts | 258° |
| 2026-04-18 10:04 | 51.14978 | -0.17859 | 211 ft | 108 kts | 258° |
| 2026-04-18 10:04 | 51.14777 | -0.19309 | 251 ft | 154 kts | 258° |
| 2026-04-18 10:04 | 51.14535 | -0.20994 | 779 ft | 160 kts | 259° |
| 2026-04-18 10:05 | 51.14293 | -0.22657 | 1671 ft | 145 kts | 261° |
| 2026-04-18 10:05 | 51.14067 | -0.24251 | 2274 ft | 154 kts | 261° |
| 2026-04-18 10:05 | 51.13828 | -0.26016 | 2730 ft | 172 kts | 261° |
| 2026-04-18 10:05 | 51.13616 | -0.28003 | 3183 ft | 194 kts | 274° |
| 2026-04-18 10:06 | 51.14086 | -0.30070 | 3733 ft | 214 kts | 307° |
| 2026-04-18 10:06 | 51.15320 | -0.31457 | 4451 ft | 226 kts | 341° |
| 2026-04-18 10:06 | 51.16898 | -0.31484 | 5567 ft | 234 kts | 13° |
| 2026-04-18 10:06 | 51.18337 | -0.30154 | 6597 ft | 249 kts | 42° |
| 2026-04-18 10:07 | 51.19348 | -0.27853 | 7515 ft | 259 kts | 64° |
| 2026-04-18 10:07 | 51.19968 | -0.25118 | 8492 ft | 266 kts | 75° |
| 2026-04-18 10:07 | 51.20378 | -0.22209 | 9456 ft | 273 kts | 80° |
| 2026-04-18 10:07 | 51.20727 | -0.19159 | 10001 ft | 291 kts | 81° |
| 2026-04-18 10:08 | 51.21108 | -0.15824 | 10194 ft | 313 kts | 81° |
| 2026-04-18 10:08 | 51.21520 | -0.12403 | 10238 ft | 314 kts | 80° |
| 2026-04-18 10:08 | 51.22132 | -0.08968 | 10243 ft | 339 kts | 64° |
| 2026-04-18 10:08 | 51.23602 | -0.05881 | 10638 ft | 358 kts | 38° |
| 2026-04-18 10:09 | 51.25611 | -0.03595 | 11499 ft | 362 kts | 31° |
| 2026-04-18 10:09 | 51.27727 | -0.01334 | 12380 ft | 369 kts | 31° |
| 2026-04-18 10:09 | 51.29877 | 0.00972 | 13198 ft | 375 kts | 31° |
| 2026-04-18 10:09 | 51.32066 | 0.03335 | 14008 ft | 383 kts | 31° |
| 2026-04-18 10:10 | 51.34284 | 0.05741 | 14921 ft | 388 kts | 31° |
| 2026-04-18 10:10 | 51.36535 | 0.08189 | 15679 ft | 394 kts | 31° |
| 2026-04-18 10:10 | 51.38810 | 0.10677 | 16492 ft | 398 kts | 31° |
| 2026-04-18 10:10 | 51.41114 | 0.13206 | 17262 ft | 404 kts | 31° |
| 2026-04-18 10:11 | 51.43440 | 0.15773 | 18030 ft | 409 kts | 31° |
| 2026-04-18 10:11 | 51.45803 | 0.18380 | 18743 ft | 415 kts | 31° |
| 2026-04-18 10:11 | 51.48177 | 0.21044 | 19086 ft | 419 kts | 35° |
| 2026-04-18 10:11 | 51.50288 | 0.24309 | 19351 ft | 426 kts | 44° |
| 2026-04-18 10:12 | 51.52323 | 0.27795 | 20080 ft | 428 kts | 45° |
| 2026-04-18 10:12 | 51.54365 | 0.31315 | 20776 ft | 432 kts | 44° |
| 2026-04-18 10:12 | 51.56422 | 0.34857 | 21421 ft | 437 kts | 44° |
| 2026-04-18 10:12 | 51.58484 | 0.38402 | 22039 ft | 442 kts | 44° |
| 2026-04-18 10:13 | 51.60597 | 0.42034 | 22670 ft | 447 kts | 44° |
| 2026-04-18 10:13 | 51.62728 | 0.45710 | 23324 ft | 451 kts | 44° |
| 2026-04-18 10:13 | 51.64881 | 0.49420 | 23906 ft | 455 kts | 44° |
| 2026-04-18 10:13 | 51.67053 | 0.53164 | 24492 ft | 458 kts | 44° |
| 2026-04-18 10:14 | 51.69244 | 0.56952 | 25112 ft | 462 kts | 44° |
| 2026-04-18 10:14 | 51.71441 | 0.60757 | 25696 ft | 466 kts | 44° |
| 2026-04-18 10:14 | 51.73664 | 0.64607 | 26196 ft | 470 kts | 44° |
| 2026-04-18 10:14 | 51.75866 | 0.68428 | 26691 ft | 473 kts | 44° |
| 2026-04-18 10:15 | 51.78116 | 0.72336 | 27189 ft | 476 kts | 44° |
| 2026-04-18 10:15 | 51.80384 | 0.76280 | 27663 ft | 480 kts | 44° |
| 2026-04-18 10:15 | 51.82694 | 0.80205 | 28082 ft | 484 kts | 40° |
| 2026-04-18 10:15 | 51.85048 | 0.84118 | 28534 ft | 489 kts | 49° |
| 2026-04-18 10:16 | 51.86907 | 0.88758 | 28970 ft | 495 kts | 63° |
| 2026-04-18 10:16 | 51.88169 | 0.93974 | 29197 ft | 502 kts | 76° |
| 2026-04-18 10:16 | 51.88792 | 0.99583 | 29202 ft | 511 kts | 87° |
| 2026-04-18 10:17 | 51.89497 | 1.11253 | 29224 ft | 530 kts | 82° |
| 2026-04-18 10:17 | 51.91124 | 1.22971 | 29219 ft | 541 kts | 76° |
| 2026-04-18 10:18 | 51.93198 | 1.34752 | 29218 ft | 545 kts | 75° |
| 2026-04-18 10:18 | 51.95296 | 1.46423 | 29212 ft | 529 kts | 75° |
| 2026-04-18 10:19 | 51.97328 | 1.57883 | 29231 ft | 530 kts | 75° |
| 2026-04-18 10:19 | 51.99338 | 1.69338 | 29222 ft | 531 kts | 75° |
| 2026-04-18 10:20 | 52.01181 | 1.80963 | 29218 ft | 531 kts | 77° |
| 2026-04-18 10:20 | 52.02948 | 1.92606 | 29220 ft | 531 kts | 77° |
| 2026-04-18 10:21 | 52.04717 | 2.04166 | 29031 ft | 517 kts | 77° |
| 2026-04-18 10:21 | 52.05576 | 2.09779 | 28692 ft | 505 kts | 77° |
| 2026-04-18 10:21 | 52.06398 | 2.15166 | 28414 ft | 490 kts | 77° |
| 2026-04-18 10:21 | 52.07207 | 2.20478 | 28138 ft | 478 kts | 77° |
| 2026-04-18 10:22 | 52.08000 | 2.25721 | 27877 ft | 479 kts | 77° |
| 2026-04-18 10:22 | 52.08796 | 2.30996 | 27608 ft | 480 kts | 77° |
| 2026-04-18 10:22 | 52.09590 | 2.36281 | 27341 ft | 477 kts | 77° |
| 2026-04-18 10:22 | 52.10366 | 2.41456 | 27080 ft | 475 kts | 77° |
| 2026-04-18 10:23 | 52.11236 | 2.46633 | 26790 ft | 474 kts | 71° |
| 2026-04-18 10:23 | 52.12517 | 2.51567 | 26529 ft | 471 kts | 63° |
| 2026-04-18 10:23 | 52.14148 | 2.56187 | 26277 ft | 469 kts | 58° |
| 2026-04-18 10:23 | 52.15813 | 2.60752 | 26023 ft | 468 kts | 59° |
| 2026-04-18 10:24 | 52.17459 | 2.65299 | 25772 ft | 466 kts | 59° |
| 2026-04-18 10:24 | 52.19103 | 2.69855 | 25521 ft | 464 kts | 59° |
| 2026-04-18 10:24 | 52.20711 | 2.74318 | 25276 ft | 462 kts | 59° |
| 2026-04-18 10:24 | 52.22332 | 2.78826 | 25032 ft | 460 kts | 59° |
| 2026-04-18 10:25 | 52.23954 | 2.83343 | 24783 ft | 458 kts | 59° |
| 2026-04-18 10:25 | 52.25564 | 2.87823 | 24574 ft | 457 kts | 59° |
| 2026-04-18 10:25 | 52.27178 | 2.92295 | 24342 ft | 456 kts | 59° |
| 2026-04-18 10:25 | 52.28780 | 2.96762 | 24076 ft | 454 kts | 59° |
| 2026-04-18 10:26 | 52.30366 | 3.01208 | 23834 ft | 451 kts | 59° |
| 2026-04-18 10:26 | 52.31924 | 3.05585 | 23565 ft | 448 kts | 59° |
| 2026-04-18 10:26 | 52.33485 | 3.09982 | 23287 ft | 446 kts | 59° |
| 2026-04-18 10:26 | 52.35044 | 3.14380 | 22715 ft | 448 kts | 59° |
| 2026-04-18 10:27 | 52.36608 | 3.18799 | 21952 ft | 449 kts | 59° |
| 2026-04-18 10:27 | 52.38173 | 3.23226 | 21208 ft | 448 kts | 59° |
| 2026-04-18 10:27 | 52.39731 | 3.27642 | 20436 ft | 446 kts | 59° |
| 2026-04-18 10:27 | 52.41283 | 3.32045 | 19682 ft | 445 kts | 59° |
| 2026-04-18 10:28 | 52.42827 | 3.36420 | 19012 ft | 441 kts | 59° |
| 2026-04-18 10:28 | 52.44258 | 3.40769 | 18368 ft | 436 kts | 66° |
| 2026-04-18 10:28 | 52.45290 | 3.45408 | 17666 ft | 430 kts | 76° |
| 2026-04-18 10:28 | 52.45974 | 3.50152 | 17004 ft | 424 kts | 78° |
| 2026-04-18 10:29 | 52.46638 | 3.54818 | 16348 ft | 418 kts | 78° |
| 2026-04-18 10:29 | 52.47301 | 3.59443 | 15701 ft | 414 kts | 79° |
| 2026-04-18 10:29 | 52.47945 | 3.64017 | 15060 ft | 409 kts | 78° |
| 2026-04-18 10:29 | 52.48318 | 3.68593 | 14424 ft | 401 kts | 94° |
| 2026-04-18 10:30 | 52.48149 | 3.73081 | 13775 ft | 396 kts | 97° |
| 2026-04-18 10:30 | 52.47951 | 3.77568 | 13088 ft | 393 kts | 97° |
| 2026-04-18 10:30 | 52.47746 | 3.82079 | 12398 ft | 389 kts | 97° |
| 2026-04-18 10:30 | 52.47548 | 3.86430 | 11742 ft | 386 kts | 97° |
| 2026-04-18 10:31 | 52.47352 | 3.90801 | 11085 ft | 382 kts | 97° |
| 2026-04-18 10:31 | 52.47167 | 3.95147 | 10443 ft | 379 kts | 97° |
| 2026-04-18 10:31 | 52.46998 | 3.99437 | 9906 ft | 372 kts | 97° |
| 2026-04-18 10:31 | 52.46811 | 4.03656 | 9258 ft | 369 kts | 97° |
| 2026-04-18 10:32 | 52.46616 | 4.07832 | 8606 ft | 366 kts | 97° |
| 2026-04-18 10:32 | 52.46415 | 4.11923 | 7974 ft | 363 kts | 97° |
| 2026-04-18 10:32 | 52.46205 | 4.16044 | 7451 ft | 358 kts | 97° |
| 2026-04-18 10:32 | 52.45998 | 4.20028 | 7250 ft | 342 kts | 97° |
| 2026-04-18 10:33 | 52.45803 | 4.23816 | 7197 ft | 324 kts | 97° |
| 2026-04-18 10:33 | 52.45623 | 4.27385 | 7198 ft | 305 kts | 97° |
| 2026-04-18 10:33 | 52.45458 | 4.30761 | 7199 ft | 294 kts | 97° |
| 2026-04-18 10:33 | 52.45294 | 4.34100 | 7199 ft | 297 kts | 97° |
| 2026-04-18 10:34 | 52.45127 | 4.37468 | 7199 ft | 295 kts | 97° |
| 2026-04-18 10:34 | 52.44957 | 4.40831 | 7199 ft | 296 kts | 97° |
| 2026-04-18 10:34 | 52.44785 | 4.44198 | 7195 ft | 296 kts | 97° |
| 2026-04-18 10:34 | 52.44612 | 4.47565 | 7196 ft | 296 kts | 97° |
| 2026-04-18 10:35 | 52.44438 | 4.50925 | 7200 ft | 296 kts | 97° |
| 2026-04-18 10:35 | 52.44264 | 4.54296 | 7196 ft | 295 kts | 97° |
| 2026-04-18 10:35 | 52.44087 | 4.57654 | 7190 ft | 295 kts | 97° |
| 2026-04-18 10:35 | 52.43905 | 4.61012 | 7026 ft | 295 kts | 97° |
| 2026-04-18 10:36 | 52.43725 | 4.64310 | 6754 ft | 292 kts | 97° |
| 2026-04-18 10:36 | 52.43546 | 4.67622 | 6410 ft | 292 kts | 97° |
| 2026-04-18 10:36 | 52.43363 | 4.70931 | 6029 ft | 291 kts | 97° |
| 2026-04-18 10:36 | 52.43185 | 4.74223 | 5638 ft | 289 kts | 97° |
| 2026-04-18 10:37 | 52.43007 | 4.77506 | 5268 ft | 287 kts | 97° |
| 2026-04-18 10:37 | 52.42765 | 4.80708 | 5056 ft | 276 kts | 107° |
| 2026-04-18 10:37 | 52.42202 | 4.83637 | 4922 ft | 263 kts | 112° |
| 2026-04-18 10:37 | 52.41632 | 4.86416 | 4810 ft | 252 kts | 112° |
| 2026-04-18 10:38 | 52.41082 | 4.89092 | 4547 ft | 250 kts | 112° |
| 2026-04-18 10:38 | 52.40524 | 4.91785 | 4247 ft | 249 kts | 112° |
| 2026-04-18 10:38 | 52.39972 | 4.94474 | 3939 ft | 248 kts | 112° |
| 2026-04-18 10:38 | 52.39423 | 4.97144 | 3662 ft | 247 kts | 112° |
| 2026-04-18 10:39 | 52.38865 | 4.99797 | 3355 ft | 247 kts | 112° |
| 2026-04-18 10:39 | 52.38298 | 5.02419 | 3126 ft | 242 kts | 112° |
| 2026-04-18 10:39 | 52.37468 | 5.04739 | 2829 ft | 233 kts | 141° |
| 2026-04-18 10:39 | 52.36093 | 5.05957 | 2524 ft | 222 kts | 174° |
| 2026-04-18 10:40 | 52.34591 | 5.05815 | 2226 ft | 213 kts | 204° |
| 2026-04-18 10:40 | 52.33454 | 5.04486 | 2147 ft | 197 kts | 233° |
| 2026-04-18 10:40 | 52.32848 | 5.02572 | 2059 ft | 184 kts | 253° |
| 2026-04-18 10:40 | 52.32605 | 5.00630 | 1990 ft | 162 kts | 262° |
| 2026-04-18 10:41 | 52.32508 | 4.98928 | 1991 ft | 148 kts | 265° |
| 2026-04-18 10:41 | 52.32440 | 4.97210 | 1990 ft | 149 kts | 264° |
| 2026-04-18 10:41 | 52.32380 | 4.95514 | 1941 ft | 151 kts | 266° |
| 2026-04-18 10:41 | 52.32322 | 4.93833 | 1761 ft | 148 kts | 266° |
| 2026-04-18 10:42 | 52.32264 | 4.92133 | 1547 ft | 149 kts | 266° |
| 2026-04-18 10:42 | 52.32210 | 4.90531 | 1341 ft | 133 kts | 266° |
| 2026-04-18 10:42 | 52.32161 | 4.89111 | 1165 ft | 118 kts | 266° |
| 2026-04-18 10:42 | 52.32118 | 4.87834 | 1012 ft | 111 kts | 266° |
| 2026-04-18 10:43 | 52.32074 | 4.86560 | 857 ft | 112 kts | 266° |
| 2026-04-18 10:43 | 52.32031 | 4.85302 | 708 ft | 109 kts | 266° |
| 2026-04-18 10:43 | 52.31987 | 4.84027 | 565 ft | 114 kts | 266° |
| 2026-04-18 10:43 | 52.31943 | 4.82746 | 408 ft | 113 kts | 266° |
| 2026-04-18 10:44 | 52.31900 | 4.81484 | 249 ft | 107 kts | 267° |
| 2026-04-18 10:44 | 52.31858 | 4.80258 | 111 ft | 112 kts | 266° |
| 2026-04-18 10:44 | 52.31816 | 4.79002 | 22 ft | 107 kts | 264° |
| 2026-04-18 10:44 | 52.31782 | 4.78022 | 17 ft | 59 kts | 266° |
| 2026-04-18 10:45 | 52.31764 | 4.77504 | 16 ft | 39 kts | 266° |
| 2026-04-18 10:45 | 52.31748 | 4.77105 | 17 ft | 22 kts | 260° |
| 2026-04-18 10:45 | 52.31684 | 4.76871 | 13 ft | 20 kts | 237° |
| 2026-04-18 10:45 | 52.31648 | 4.76780 | 15 ft | 0 kts | 238° |
| 2026-04-18 10:46 | 52.31646 | 4.76776 | 15 ft | 2 kts | 238° |
| 2026-04-18 10:46 | 52.31632 | 4.76738 | 15 ft | 6 kts | 237° |
| 2026-04-18 10:46 | 52.31591 | 4.76678 | 14 ft | 10 kts | 205° |
| 2026-04-18 10:47 | 52.31553 | 4.76704 | 12 ft | 3 kts | 88° |
| 2026-04-18 10:47 | 52.31560 | 4.76783 | 11 ft | 11 kts | 86° |
| 2026-04-18 10:47 | 52.31563 | 4.76867 | 11 ft | 1 kts | 86° |
| 2026-04-18 10:47 | 52.31564 | 4.76905 | 11 ft | 6 kts | 87° |
| 2026-04-18 10:48 | 52.31567 | 4.76998 | 10 ft | 9 kts | 86° |
| 2026-04-18 10:48 | 52.31567 | 4.77003 | 10 ft | 0 kts | 86° |
| 2026-04-18 10:51 | 52.31569 | 4.77066 | 10 ft | 14 kts | 87° |
| 2026-04-18 10:51 | 52.31577 | 4.77297 | 11 ft | 22 kts | 87° |
| 2026-04-18 10:51 | 52.31560 | 4.77469 | 14 ft | 15 kts | 121° |
| 2026-04-18 10:52 | 52.31476 | 4.77611 | 13 ft | 19 kts | 144° |
| 2026-04-18 10:52 | 52.31349 | 4.77652 | 15 ft | 20 kts | 182° |
| 2026-04-18 10:52 | 52.31194 | 4.77638 | 12 ft | 23 kts | 183° |
| 2026-04-18 10:52 | 52.31030 | 4.77623 | 13 ft | 24 kts | 183° |
| 2026-04-18 10:53 | 52.30862 | 4.77607 | 12 ft | 25 kts | 182° |
| 2026-04-18 10:53 | 52.30710 | 4.77594 | 13 ft | 0 kts | 184° |
| 2026-04-18 10:53 | 52.30684 | 4.77587 | 13 ft | 10 kts | 196° |
| 2026-04-18 10:53 | 52.30647 | 4.77479 | 12 ft | 14 kts | 260° |
| 2026-04-18 10:54 | 52.30645 | 4.77287 | 7 ft | 17 kts | 273° |
| 2026-04-18 10:54 | 52.30682 | 4.77214 | 6 ft | 9 kts | 353° |
| 2026-04-18 10:54 | 52.30714 | 4.77215 | 6 ft | 0 kts | 2° |